Latest Weather Observations for Bankstown

IDN60801

Issued at 11:35 am EST Wednesday 3 September 2014 (issued every 30 minutes, with the page automatically refreshed every 10 minutes)

About weather observations | Map of weather stations | Latest weather observations for NSW | Other Formats
Station Details ID: 066137 Name: BANKSTOWN AIRPORT AWS Lat: -33.92 Lon: 150.99 Height: 6.5 m
Data from the previous 72 hours. | See also: Recent months at Bankstown
Date/Time
EST
Temp
°C
App
Temp
°C
Dew
Point
Rel
Hum
%
Delta-T
°C
Wind Press
QNH
hPa
Press
MSL
hPa
Rain
since 9 am
mm
Dir
 
Spd
km/h
Gust
km/h
Spd
kts
Gust
kts
03/11:32am 15.3 6.1 1.1 38 6.2 S 39 57 21 31 1013.9 1013.9 0.0
03/11:30am 15.4 6.6 1.2 38 6.2 S 37 54 20 29 1014.0 1014.0 0.0
03/11:10am 15.3 6.8 1.1 38 6.2 SSW 35 59 19 32 1014.3 1014.3 0.0
03/11:00am 15.2 7.4 1.4 39 6.0 S 32 48 17 26 1014.2 1014.2 0.0
03/10:42am 15.4 7.4 1.9 40 6.0 SSW 33 52 18 28 1014.3 1014.3 0.0
03/10:30am 15.3 7.1 2.8 43 5.6 SSW 35 48 19 26 1014.2 1014.2 0.0
03/10:00am 13.9 5.2 1.9 44 5.2 S 37 59 20 32 1014.0 1014.0 0.0
03/09:30am 14.1 5.4 2.0 44 5.3 SSW 37 59 20 32 1014.0 1014.0 0.0
03/09:13am 13.4 6.4 1.7 45 5.0 SSW 28 46 15 25 1013.9 1013.9 0.0
03/09:00am 13.3 7.1 2.2 47 4.8 SW 24 39 13 21 1014.1 1014.1 1.6
03/08:30am 12.3 6.8 1.9 49 4.5 SW 20 32 11 17 1014.1 1014.1 1.6
03/08:00am 11.1 4.8 1.4 51 4.1 SW 24 32 13 17 1013.8 1013.8 1.6
03/07:30am 10.7 5.1 1.3 52 3.9 SW 20 30 11 16 1013.8 1013.8 1.6
03/07:00am 10.3 3.9 1.2 53 3.8 WSW 24 35 13 19 1013.3 1013.3 1.6
03/06:30am 10.4 3.2 0.7 51 4.0 SW 28 41 15 22 1013.0 1013.0 1.6
03/06:00am 10.3 3.8 0.6 51 4.0 SW 24 37 13 20 1012.8 1012.8 1.6
03/05:30am 10.3 3.8 0.6 51 4.0 SW 24 35 13 19 1012.5 - 1.6
03/05:00am 10.4 4.4 1.2 53 3.8 SW 22 33 12 18 1012.1 1012.1 1.6
03/04:30am 10.2 4.9 1.8 56 3.5 WSW 19 28 10 15 1011.6 - 1.6
03/04:00am 10.4 5.5 1.8 55 3.6 SW 17 28 9 15 1011.5 1011.5 1.6
03/03:30am 10.6 5.7 1.9 55 3.7 SW 17 28 9 15 1011.2 - 1.6
03/03:00am 10.8 5.3 1.9 54 3.8 SW 20 30 11 16 1011.2 1011.2 1.6
03/02:30am 10.8 5.4 2.4 56 3.6 WSW 20 35 11 19 1011.0 - 1.6
03/02:00am 10.4 5.3 3.0 60 3.2 WSW 19 24 10 13 1011.3 1011.3 1.6
03/01:30am 10.3 5.3 3.8 64 2.9 SW 19 30 10 16 1011.7 - 1.6
03/01:00am 10.0 5.1 4.2 67 2.6 WSW 19 28 10 15 1011.7 1011.7 1.6
03/12:30am 9.7 5.3 4.9 72 2.2 WSW 17 26 9 14 1011.8 - 1.6
03/12:00am 9.3 5.1 5.5 77 1.7 WSW 17 24 9 13 1012.0 1012.0 1.6
 
Date/Time
EST
Temp
°C
App
Temp
°C
Dew
Point
Rel
Hum
%
Delta-T
°C
Wind Press
QNH
hPa
Press
MSL
hPa
Rain
since 9 am
mm
Dir
 
Spd
km/h
Gust
km/h
Spd
kts
Gust
kts
02/11:30pm 9.0 5.2 5.7 80 1.5 WSW 15 20 8 11 1011.9 - 1.6
02/11:00pm 8.7 5.3 5.8 82 1.3 WSW 13 20 7 11 1012.1 1012.1 1.4
02/10:30pm 8.5 3.9 5.4 81 1.4 SW 19 26 10 14 1012.4 - 1.4
02/10:00pm 8.9 4.9 4.9 76 1.8 SW 15 24 8 13 1012.5 1012.5 1.2
02/09:30pm 8.9 2.0 4.7 75 1.9 SW 30 54 16 29 1012.5 - 1.2
02/09:00pm 10.6 3.3 4.3 65 2.8 SW 32 50 17 27 1012.4 1012.4 1.0
02/08:54pm 10.7 4.1 4.4 65 2.8 SW 28 50 15 27 1012.3 - 1.0
02/08:30pm 11.0 5.6 4.5 64 2.9 SW 22 41 12 22 1012.1 - 1.0
02/08:00pm 11.2 6.4 4.7 64 2.9 SSW 19 32 10 17 1011.8 1011.8 1.0
02/07:30pm 11.9 6.2 5.1 63 3.1 SSW 24 33 13 18 1011.3 - 1.0
02/07:00pm 12.2 8.5 6.3 67 2.8 SW 15 22 8 12 1010.9 1010.9 1.0
02/06:30pm 11.1 9.4 7.6 79 1.7 SSW 6 9 3 5 1010.6 - 1.0
02/06:00pm 12.3 9.6 7.4 72 2.4 SW 11 15 6 8 1010.2 1010.2 1.0
02/05:30pm 12.5 9.9 7.8 73 2.3 SW 11 19 6 10 1009.9 - 1.0
02/05:00pm 12.2 8.4 7.7 74 2.2 W 17 24 9 13 1009.6 1009.6 0.8
02/04:30pm 12.2 7.9 7.1 71 2.5 SW 19 26 10 14 1009.3 - 0.6
02/04:00pm 13.7 9.1 5.6 58 3.8 SW 19 30 10 16 1008.9 1008.9 0.6
02/03:30pm 13.0 9.4 6.8 66 3.0 SW 15 20 8 11 1008.7 - 0.6
02/03:00pm 13.9 9.1 7.2 64 3.3 SW 22 30 12 16 1008.4 1008.4 0.2
02/02:30pm 16.9 12.0 4.3 43 5.9 SW 19 26 10 14 1007.7 - 0.0
02/02:00pm 17.0 12.7 5.3 46 5.6 SW 17 24 9 13 1007.7 1007.7 0.0
02/01:30pm 14.8 12.2 7.6 62 3.6 SSW 11 15 6 8 1008.0 - 0.0
02/01:00pm 16.4 10.8 5.4 48 5.3 SW 24 35 13 19 1008.0 1008.0 0.0
02/12:30pm 16.3 11.7 5.6 49 5.1 SW 19 26 10 14 1008.3 - 0.0
02/12:00pm 15.8 11.0 5.7 51 4.9 WSW 20 32 11 17 1008.6 1008.6 0.0
02/11:30am 16.6 11.6 4.6 45 5.7 WSW 20 33 11 18 1008.7 - 0.0
02/11:00am 16.1 11.4 5.1 48 5.2 WSW 19 28 10 15 1009.1 1009.1 0.0
02/10:30am 16.4 12.1 5.1 47 5.4 WSW 17 20 9 11 1009.1 - 0.0
02/10:00am 15.9 11.0 5.2 49 5.1 SW 20 28 11 15 1009.4 1009.4 0.0
02/09:30am 16.9 13.6 4.6 44 5.8 WSW 11 17 6 9 1009.2 - 0.0
02/09:00am 16.1 13.0 7.3 56 4.4 SSW 13 19 7 10 1009.2 1009.2 0.0
02/08:30am 14.9 14.2 7.0 59 3.9 CALM 0 4 0 2 1009.2 - 0.0
02/08:00am 14.7 12.9 7.3 61 3.6 N 6 7 3 4 1009.6 1009.6 0.0
02/07:30am 14.0 11.9 6.6 61 3.6 NNW 7 9 4 5 1009.6 - 0.0
02/07:00am 14.0 11.5 6.4 60 3.7 NNW 9 11 5 6 1009.6 1009.6 0.0
02/06:30am 14.1 11.5 6.0 58 3.9 NNW 9 11 5 6 1009.3 - 0.0
02/06:00am 15.0 12.8 5.2 52 4.6 WNW 6 9 3 5 1008.9 1008.9 0.0
02/05:30am 15.2 11.7 5.4 52 4.6 WSW 13 17 7 9 1009.0 - 0.0
02/05:00am 15.7 11.4 5.3 50 5.0 SW 17 22 9 12 1008.9 1008.9 0.0
02/04:30am 16.0 11.1 5.3 49 5.1 SW 20 35 11 19 1009.0 - 0.0
02/04:00am 15.7 12.7 6.2 53 4.6 SSW 11 17 6 9 1008.9 1008.9 0.0
02/03:30am 14.8 12.4 6.9 59 3.9 W 9 15 5 8 1008.7 - 0.0
02/03:00am 14.9 14.0 7.7 62 3.6 WSW 2 7 1 4 1008.7 1008.7 0.0
02/02:30am 14.4 12.0 8.6 68 2.9 WSW 11 17 6 9 1008.8 - 0.0
02/02:00am 14.4 14.1 8.6 68 2.9 CALM 0 0 0 0 1008.6 1008.6 0.0
02/01:30am 15.8 13.9 6.5 54 4.5 NNW 6 9 3 5 1008.9 - 0.0
02/01:00am 15.7 13.5 6.2 53 4.6 NNW 7 9 4 5 1009.2 1009.2 0.0
02/12:30am 16.7 14.3 5.3 47 5.5 NNW 7 11 4 6 1009.5 - 0.0
02/12:00am 16.9 14.1 5.2 46 5.6 N 9 13 5 7 1009.9 1009.9 0.0
 
Date/Time
EST
Temp
°C
App
Temp
°C
Dew
Point
Rel
Hum
%
Delta-T
°C
Wind Press
QNH
hPa
Press
MSL
hPa
Rain
since 9 am
mm
Dir
 
Spd
km/h
Gust
km/h
Spd
kts
Gust
kts
01/11:30pm 16.8 14.4 5.1 46 5.6 NNW 7 9 4 5 1010.4 - 0.0
01/11:00pm 17.2 14.9 5.5 46 5.7 N 7 9 4 5 1010.6 1010.6 0.0
01/10:30pm 17.8 15.0 5.1 43 6.1 N 9 13 5 7 1010.7 - 0.0
01/10:00pm 17.6 14.5 5.5 45 5.9 N 11 13 6 7 1010.8 1010.8 0.0
01/09:30pm 17.8 14.4 5.7 45 5.9 NNW 13 15 7 8 1011.2 - 0.0
01/09:00pm 17.4 13.5 5.4 45 5.8 NNW 15 17 8 9 1011.3 1011.3 0.0
01/08:30pm 18.0 14.4 5.2 43 6.2 NNW 13 15 7 8 1011.4 - 0.0
01/08:00pm 17.7 14.4 6.3 47 5.6 NW 13 20 7 11 1011.5 1011.5 0.0
01/07:30pm 15.7 13.8 7.7 59 4.0 N 7 9 4 5 1011.2 - 0.0
01/07:00pm 17.5 15.7 8.1 54 4.8 N 7 9 4 5 1011.1 1011.1 0.0
01/06:30pm 18.7 16.9 8.1 50 5.4 N 7 11 4 6 1010.9 - 0.0
01/06:00pm 20.0 17.5 8.0 46 6.2 NNE 11 15 6 8 1010.5 1010.5 0.0
01/05:30pm 21.3 18.9 5.2 35 8.0 NNW 7 9 4 5 1010.4 - 0.0
01/05:00pm 21.7 19.2 6.4 37 7.8 NNW 9 13 5 7 1010.3 1010.3 0.0
01/04:30pm 22.6 19.1 5.5 33 8.6 N 13 19 7 10 1010.2 - 0.0
01/04:00pm 23.4 19.8 4.9 30 9.2 N 13 17 7 9 1010.2 1010.2 0.0
01/03:30pm 22.9 19.4 5.3 32 8.8 NNW 13 17 7 9 1010.6 - 0.0
01/03:00pm 23.2 19.1 4.2 29 9.3 NNW 15 19 8 10 1010.5 1010.5 0.0
01/02:30pm 23.6 20.3 4.5 29 9.5 NNW 11 19 6 10 1010.8 - 0.0
01/02:00pm 23.0 20.1 4.5 30 9.1 N 9 19 5 10 1011.3 1011.3 0.0
01/01:30pm 22.6 20.4 6.0 34 8.4 WNW 7 17 4 9 1012.1 - 0.0
01/01:00pm 22.1 18.9 5.1 33 8.4 NNW 11 20 6 11 1012.6 1012.6 0.0
01/12:30pm 21.2 18.3 6.7 39 7.4 WNW 11 17 6 9 1013.3 - 0.0
01/12:00pm 21.1 18.3 7.0 40 7.2 WNW 11 17 6 9 1013.8 1013.8 0.0
01/11:30am 20.7 18.5 8.0 44 6.6 NNW 9 15 5 8 1014.1 - 0.0
01/11:00am 19.6 18.1 9.2 51 5.5 WNW 7 13 4 7 1014.7 1014.7 0.0
01/10:30am 18.1 16.2 9.2 56 4.7 NW 9 15 5 8 1015.4 - 0.0
01/10:00am 16.9 16.0 10.5 66 3.4 N 6 11 3 6 1016.0 1016.0 0.0
01/09:30am 14.9 13.3 10.3 74 2.4 W 9 11 5 6 1016.7 - 0.0
01/09:00am 13.3 11.8 10.7 84 1.4 WNW 9 11 5 6 1017.1 1017.1 0.0
01/08:30am 12.5 11.6 11.4 93 0.6 NW 7 9 4 5 1017.4 - 0.0
01/08:23am 12.3 11.4 11.2 93 0.6 NW 7 9 4 5 1017.5 - 0.0
01/08:00am 11.0 9.9 10.1 94 0.5 WSW 6 9 3 5 1017.6 1017.6 0.0
01/07:30am 10.1 9.9 9.2 94 0.4 CALM 0 0 0 0 1017.3 - 0.0
01/07:12am 9.8 9.6 8.9 94 0.4 CALM 0 0 0 0 1017.1 - 0.0
01/07:00am 9.1 8.7 8.2 94 0.4 CALM 0 0 0 0 1017.1 1017.1 0.0
01/06:56am 9.1 8.7 8.2 94 0.4 CALM 0 0 0 0 1017.1 - 0.0
01/06:41am 8.4 7.8 7.5 94 0.4 CALM 0 0 0 0 1017.0 - 0.0
01/06:30am 9.0 8.6 8.1 94 0.4 CALM 0 0 0 0 1017.0 - 0.0
01/06:22am 9.1 8.7 8.2 94 0.4 CALM 0 0 0 0 1017.0 - 0.0
01/06:00am 9.1 7.5 8.2 94 0.4 NNW 6 9 3 5 1016.9 1016.9 0.0
01/05:41am 9.0 6.9 8.1 94 0.4 NNW 9 9 5 5 1016.7 - 0.0
01/05:34am 9.2 7.1 8.3 94 0.4 NNW 9 9 5 5 1016.6 - 0.0
01/05:30am 9.2 7.1 8.3 94 0.4 N 9 11 5 6 1016.6 - 0.0
01/05:16am 9.4 7.7 8.5 94 0.4 NNW 7 9 4 5 1016.6 - 0.0
01/05:02am 8.7 6.9 7.8 94 0.4 N 7 9 4 5 1016.5 - 0.0
01/05:00am 9.0 7.2 8.1 94 0.4 N 7 9 4 5 1016.5 1016.5 0.0
01/04:30am 9.2 8.8 8.3 94 0.4 CALM 0 7 0 4 1016.3 - 0.0
01/04:25am 9.1 8.7 8.2 94 0.4 CALM 0 0 0 0 1016.3 - 0.0
01/04:17am 8.9 8.4 7.8 93 0.5 CALM 0 0 0 0 1016.2 - 0.0
01/04:00am 8.5 7.9 7.4 93 0.5 CALM 0 0 0 0 1016.2 1016.2 0.0
01/03:30am 8.3 7.6 7.1 92 0.6 CALM 0 0 0 0 1016.0 - 0.0
01/03:17am 8.7 8.1 7.5 92 0.6 CALM 0 0 0 0 1016.0 - 0.0
01/03:00am 8.9 8.4 7.8 93 0.5 CALM 0 0 0 0 1016.2 1016.2 0.0
01/02:30am 9.1 8.2 7.9 92 0.6 ESE 2 6 1 3 1016.7 - 0.0
01/02:04am 9.7 9.4 8.5 92 0.6 CALM 0 0 0 0 1016.9 - 0.0
01/02:00am 9.8 9.5 8.6 92 0.6 CALM 0 0 0 0 1016.9 1016.9 0.0
01/01:45am 9.3 8.9 8.1 92 0.6 CALM 0 0 0 0 1017.1 - 0.0
01/01:30am 10.4 10.2 9.2 92 0.6 CALM 0 0 0 0 1017.2 - 0.0
01/01:00am 10.3 10.1 9.1 92 0.6 CALM 0 0 0 0 1017.4 1017.4 0.0
01/12:53am 9.8 9.5 8.6 92 0.6 CALM 0 0 0 0 1017.5 - 0.0
01/12:30am 10.2 9.9 8.8 91 0.7 CALM 0 0 0 0 1017.6 - 0.0
01/12:29am 10.3 10.1 8.9 91 0.7 CALM 0 0 0 0 1017.6 - 0.0
01/12:00am 10.5 10.3 9.1 91 0.7 CALM 0 0 0 0 1018.0 1018.0 0.0
 
Date/Time
EST
Temp
°C
App
Temp
°C
Dew
Point
Rel
Hum
%
Delta-T
°C
Wind Press
QNH
hPa
Press
MSL
hPa
Rain
since 9 am
mm
Dir
 
Spd
km/h
Gust
km/h
Spd
kts
Gust
kts
31/11:43pm 11.0 10.9 9.6 91 0.7 CALM 0 0 0 0 1018.1 - 0.0
31/11:30pm 10.8 10.7 9.4 91 0.7 CALM 0 0 0 0 1018.2 - 0.0
31/11:19pm 10.2 9.9 8.6 90 0.8 CALM 0 0 0 0 1018.3 - 0.0
31/11:00pm 10.8 10.6 9.2 90 0.8 CALM 0 0 0 0 1018.3 1018.3 0.0
31/10:39pm 11.8 11.9 10.2 90 0.8 CALM 0 0 0 0 1018.3 - 0.0
31/10:30pm 11.8 11.9 10.2 90 0.8 CALM 0 0 0 0 1018.3 - 0.0
31/10:20pm 11.1 11.0 9.4 89 0.9 CALM 0 0 0 0 1018.4 - 0.0
31/10:00pm 12.1 12.3 10.5 90 0.8 CALM 0 0 0 0 1018.4 1018.4 0.0
31/09:30pm 11.9 12.0 10.1 89 0.9 CALM 0 0 0 0 1018.4 - 0.0
31/09:00pm 12.6 12.9 10.8 89 0.9 CALM 0 0 0 0 1018.4 1018.4 0.0
31/08:30pm 12.2 11.1 9.9 86 1.2 ESE 6 7 3 4 1018.4 - 0.0
31/08:00pm 13.3 13.4 10.1 81 1.6 CALM 0 0 0 0 1018.3 1018.3 0.0
31/07:30pm 14.8 14.0 11.0 78 2.0 ESE 6 7 3 4 1018.1 - 0.0
31/07:00pm 15.6 14.9 11.4 76 2.3 E 6 9 3 5 1017.8 1017.8 0.0
31/06:30pm 15.9 14.6 11.1 73 2.6 E 9 13 5 7 1017.4 - 0.0
31/06:00pm 16.4 14.2 10.7 69 3.0 E 13 19 7 10 1017.3 1017.3 0.0
31/05:30pm 17.1 14.9 10.7 66 3.4 E 13 20 7 11 1017.0 - 0.0
31/05:00pm 17.8 14.1 9.4 58 4.4 E 19 22 10 12 1016.9 1016.9 0.0
31/04:30pm 18.5 14.7 9.8 57 4.6 E 20 24 11 13 1016.9 - 0.0
31/04:00pm 19.0 15.0 10.3 57 4.7 E 22 28 12 15 1016.8 1016.8 0.0
31/03:30pm 19.9 16.2 10.3 54 5.2 E 20 26 11 14 1016.8 - 0.0
31/03:00pm 20.7 17.0 10.2 51 5.7 SE 20 24 11 13 1016.8 1016.8 0.0
31/02:30pm 20.5 17.9 9.4 49 5.9 SE 13 19 7 10 1017.1 - 0.0
31/02:00pm 21.2 19.5 7.4 41 7.1 W 6 13 3 7 1017.4 1017.4 0.0
31/01:30pm 20.9 19.3 7.9 43 6.7 NW 6 9 3 5 1017.9 - 0.0
31/01:00pm 20.1 18.6 8.4 47 6.1 SE 6 11 3 6 1018.3 1018.3 0.0
31/12:30pm 19.3 17.4 7.7 47 5.9 SSW 7 11 4 6 1018.8 - 0.0
31/12:00pm 19.0 16.6 8.6 51 5.4 SW 11 20 6 11 1019.4 1019.4 0.0

Other Formats:

Comma delimited format used in spreadsheet applications
http://www.bom.gov.au/fwo/IDN60801/IDN60801.94765.axf

JavaScript Object Notation format (JSON) in row-major order
http://www.bom.gov.au/fwo/IDN60801/IDN60801.94765.json